createdAt,value
2018-11-29T00:00:10.509Z,29.05
2018-11-29T00:02:37.924Z,27.37
2018-11-29T00:05:08.501Z,26.97
2018-11-29T00:07:35.909Z,23.32
2018-11-29T00:10:03.429Z,24.85
2018-11-29T00:12:30.825Z,27.20
2018-11-29T00:14:58.221Z,26.42
2018-11-29T00:17:25.623Z,23.73
2018-11-29T00:19:53.045Z,23.10
2018-11-29T00:22:20.453Z,23.25
2018-11-29T00:24:47.849Z,21.90
2018-11-29T00:27:15.261Z,32.08
2018-11-29T00:29:43.653Z,28.50
2018-11-29T00:32:14.613Z,31.50
2018-11-29T00:34:42.009Z,27.55
2018-11-29T00:37:09.394Z,28.87
2018-11-29T00:39:36.801Z,24.95
2018-11-29T00:42:04.286Z,26.95
2018-11-29T00:44:31.717Z,28.95
2018-11-29T00:46:59.097Z,23.80
2018-11-29T00:49:26.509Z,26.37
2018-11-29T00:51:57.529Z,27.27
2018-11-29T00:54:24.917Z,30.65
2018-11-29T00:56:52.340Z,31.55
2018-11-29T00:59:19.721Z,31.90
2018-11-29T01:01:55.986Z,23.00
2018-11-29T01:04:23.381Z,35.08
2018-11-29T01:06:50.774Z,38.28
2018-11-29T01:09:18.857Z,32.48
2018-11-29T01:11:45.584Z,27.25
2018-11-29T01:14:12.973Z,32.75
2018-11-29T01:16:41.393Z,24.63
2018-11-29T01:19:08.809Z,27.62
2018-11-29T01:21:36.224Z,25.48
2018-11-29T01:24:03.641Z,26.80
2018-11-29T01:26:31.041Z,35.68
2018-11-29T01:28:58.431Z,33.00
2018-11-29T01:31:25.824Z,23.05
2018-11-29T01:33:53.221Z,27.90
2018-11-29T01:36:20.630Z,25.40
2018-11-29T01:38:48.017Z,22.82
2018-11-29T01:41:15.432Z,36.48
2018-11-29T01:43:42.835Z,25.25
2018-11-29T01:46:10.221Z,23.15
2018-11-29T01:48:37.621Z,28.20
2018-11-29T01:51:05.337Z,32.17
2018-11-29T01:53:32.737Z,25.12
2018-11-29T01:56:00.138Z,31.40
2018-11-29T01:58:27.533Z,28.38
2018-11-29T02:00:54.933Z,26.82
2018-11-29T02:03:22.321Z,35.15
2018-11-29T02:05:49.720Z,31.55
2018-11-29T02:08:17.107Z,40.90
2018-11-29T02:10:49.364Z,30.20
2018-11-29T02:13:17.189Z,28.47
2018-11-29T02:15:44.636Z,23.83
2018-11-29T02:18:12.046Z,30.40
2018-11-29T02:20:39.437Z,28.52
2018-11-29T02:23:06.861Z,33.88
2018-11-29T02:25:37.569Z,31.30
2018-11-29T02:28:05.005Z,23.95
2018-11-29T02:30:32.475Z,31.02
2018-11-29T02:32:59.866Z,28.52
2018-11-29T02:35:27.261Z,27.75
2018-11-29T02:37:54.661Z,35.80
2018-11-29T02:40:22.056Z,28.92
2018-11-29T02:42:49.668Z,29.75
2018-11-29T02:45:19.114Z,38.28
2018-11-29T02:47:46.541Z,33.70
2018-11-29T02:50:13.945Z,39.42
2018-11-29T02:52:41.337Z,25.77
2018-11-29T02:55:10.688Z,34.53
2018-11-29T02:57:38.200Z,33.42
2018-11-29T03:00:09.574Z,27.80
2018-11-29T03:02:36.962Z,40.83
2018-11-29T03:05:04.441Z,37.55
2018-11-29T03:07:31.850Z,35.50
2018-11-29T03:09:59.233Z,26.57
2018-11-29T03:12:26.634Z,38.45
2018-11-29T03:14:54.057Z,29.70
2018-11-29T03:17:21.458Z,37.65
2018-11-29T03:19:48.850Z,34.27
2018-11-29T03:22:16.281Z,36.63
2018-11-29T03:24:43.657Z,36.70
2018-11-29T03:27:11.066Z,36.35
2018-11-29T03:29:38.485Z,37.60
2018-11-29T03:32:05.950Z,32.78
2018-11-29T03:34:33.357Z,46.37
2018-11-29T03:37:00.753Z,35.78
2018-11-29T03:39:28.157Z,36.05
2018-11-29T03:41:55.560Z,32.88
2018-11-29T03:44:22.961Z,30.60
2018-11-29T03:46:50.337Z,32.35
2018-11-29T03:49:17.745Z,37.28
2018-11-29T03:51:45.148Z,39.63
2018-11-29T03:54:12.545Z,33.02
2018-11-29T03:56:39.927Z,39.67
2018-11-29T03:59:07.334Z,44.58
2018-11-29T04:01:34.742Z,34.08
2018-11-29T04:04:02.132Z,35.75
2018-11-29T04:06:29.533Z,32.55
2018-11-29T04:08:56.936Z,41.48
2018-11-29T04:11:24.321Z,44.38
2018-11-29T04:13:54.776Z,40.12
2018-11-29T04:16:22.154Z,34.83
2018-11-29T04:18:49.565Z,39.40
2018-11-29T04:21:16.974Z,33.58
2018-11-29T04:23:47.938Z,34.25
2018-11-29T04:26:15.349Z,32.23
2018-11-29T04:28:42.773Z,33.40
2018-11-29T04:31:10.168Z,29.67
2018-11-29T04:33:37.569Z,38.95
2018-11-29T04:36:04.981Z,34.03
2018-11-29T04:38:32.394Z,29.02
2018-11-29T04:41:03.077Z,38.42
2018-11-29T04:43:30.481Z,42.55
2018-11-29T04:46:09.530Z,39.27
2018-11-29T04:48:36.921Z,38.90
2018-11-29T04:51:04.346Z,36.58
2018-11-29T04:53:31.729Z,33.85
2018-11-29T04:55:59.129Z,39.20
2018-11-29T04:58:26.530Z,29.42
2018-11-29T05:00:53.921Z,31.85
2018-11-29T05:03:21.341Z,24.65
2018-11-29T05:05:48.729Z,40.03
2018-11-29T05:08:16.129Z,40.38
2018-11-29T05:10:43.545Z,41.42
2018-11-29T05:13:10.929Z,38.33
2018-11-29T05:15:38.337Z,35.65
2018-11-29T05:18:05.739Z,35.23
2018-11-29T05:20:33.169Z,38.48
2018-11-29T05:23:00.571Z,33.45
2018-11-29T05:25:27.967Z,34.83
2018-11-29T05:27:55.361Z,29.52
2018-11-29T05:30:22.764Z,37.75
2018-11-29T05:32:50.197Z,33.85
2018-11-29T05:35:21.277Z,30.90
2018-11-29T05:37:48.661Z,28.67
2018-11-29T05:40:16.081Z,31.73
2018-11-29T05:42:43.461Z,48.68
2018-11-29T05:45:11.091Z,34.48
2018-11-29T05:47:38.549Z,29.50
2018-11-29T05:50:08.593Z,29.48
2018-11-29T05:52:35.985Z,54.55
2018-11-29T05:55:04.505Z,36.25
2018-11-29T05:57:31.905Z,34.98
2018-11-29T05:59:59.305Z,33.28
2018-11-29T06:02:26.701Z,35.23
2018-11-29T06:04:54.101Z,40.83
2018-11-29T06:07:21.500Z,43.48
2018-11-29T06:09:48.885Z,36.03
2018-11-29T06:12:16.315Z,34.75
2018-11-29T06:14:43.720Z,33.53
2018-11-29T06:17:11.111Z,33.00
2018-11-29T06:19:38.518Z,33.67
2018-11-29T06:22:05.944Z,37.03
2018-11-29T06:24:33.344Z,32.70
2018-11-29T06:27:00.740Z,40.70
2018-11-29T06:29:28.151Z,36.73
2018-11-29T06:31:55.537Z,35.35
2018-11-29T06:34:22.937Z,31.30
2018-11-29T06:36:54.090Z,38.92
2018-11-29T06:39:22.477Z,46.00
2018-11-29T06:41:49.913Z,38.20
2018-11-29T06:44:17.319Z,34.23
2018-11-29T06:46:44.713Z,36.80
2018-11-29T06:49:12.137Z,37.58
2018-11-29T06:51:39.537Z,31.37
2018-11-29T06:54:06.921Z,37.42
2018-11-29T06:56:37.953Z,35.60
2018-11-29T06:59:05.436Z,38.00
2018-11-29T07:01:32.865Z,33.33
2018-11-29T07:04:01.137Z,33.25
2018-11-29T07:06:29.541Z,37.60
2018-11-29T07:08:56.973Z,31.35
2018-11-29T07:11:24.389Z,28.60
2018-11-29T07:13:51.805Z,29.98
2018-11-29T07:16:19.205Z,36.20
2018-11-29T07:18:46.613Z,34.00
2018-11-29T07:21:26.867Z,35.65
2018-11-29T07:23:54.305Z,41.88
2018-11-29T07:26:21.685Z,33.63
2018-11-29T07:28:49.085Z,46.83
2018-11-29T07:31:17.534Z,34.73
2018-11-29T07:33:44.940Z,27.90
2018-11-29T07:36:12.365Z,26.85
2018-11-29T07:38:39.777Z,32.20
2018-11-29T07:41:07.181Z,25.97
2018-11-29T07:43:34.589Z,32.05
2018-11-29T07:46:02.009Z,40.25
2018-11-29T07:48:29.412Z,30.10
2018-11-29T07:50:56.817Z,37.13
2018-11-29T07:53:24.233Z,36.68
2018-11-29T07:55:51.625Z,33.20
2018-11-29T07:58:19.013Z,33.85
2018-11-29T08:00:46.444Z,32.65
2018-11-29T08:03:13.845Z,35.88
2018-11-29T08:05:41.258Z,35.68
2018-11-29T08:08:08.658Z,27.85
2018-11-29T08:10:36.073Z,58.20
2018-11-29T08:13:03.559Z,32.83
2018-11-29T08:15:30.977Z,48.65
2018-11-29T08:17:58.366Z,40.38
2018-11-29T08:20:25.765Z,37.78
2018-11-29T08:22:53.183Z,34.38
2018-11-29T08:25:20.613Z,32.63
2018-11-29T08:27:48.002Z,36.28
2018-11-29T08:30:15.749Z,30.02
2018-11-29T08:32:43.164Z,36.95
2018-11-29T08:35:11.531Z,41.98
2018-11-29T08:37:39.886Z,40.90
2018-11-29T08:40:13.430Z,35.78
2018-11-29T08:42:40.853Z,30.23
2018-11-29T08:45:09.433Z,39.00
2018-11-29T08:47:36.885Z,35.73
2018-11-29T08:50:06.097Z,42.27
2018-11-29T08:52:33.502Z,35.55
2018-11-29T08:55:00.894Z,34.40
2018-11-29T08:57:28.309Z,38.85
2018-11-29T08:59:55.725Z,40.17
2018-11-29T09:02:23.125Z,31.35
2018-11-29T09:04:50.537Z,31.77
2018-11-29T09:07:17.961Z,38.63
2018-11-29T09:09:45.337Z,33.92
2018-11-29T09:12:12.797Z,38.10
2018-11-29T09:14:43.825Z,34.53
2018-11-29T09:17:11.233Z,40.10
2018-11-29T09:19:38.640Z,36.70
2018-11-29T09:22:06.088Z,33.30
2018-11-29T09:24:33.469Z,32.13
2018-11-29T09:27:00.888Z,38.83
2018-11-29T09:29:28.289Z,35.90
2018-11-29T09:31:55.684Z,32.48
2018-11-29T09:34:23.097Z,33.23
2018-11-29T09:36:50.486Z,30.80
2018-11-29T09:39:17.881Z,32.48
2018-11-29T09:41:45.321Z,38.15
2018-11-29T09:44:12.746Z,31.50
2018-11-29T09:46:40.162Z,31.17
2018-11-29T09:49:07.578Z,35.68
2018-11-29T09:51:34.974Z,35.23
2018-11-29T09:54:02.430Z,29.80
2018-11-29T09:56:29.797Z,28.38
2018-11-29T09:58:57.209Z,41.40
2018-11-29T10:01:24.607Z,34.25
2018-11-29T10:03:52.046Z,30.72
2018-11-29T10:06:19.470Z,30.72
2018-11-29T10:08:46.875Z,30.70
2018-11-29T10:11:14.305Z,40.30
2018-11-29T10:13:46.140Z,30.52
2018-11-29T10:16:09.193Z,28.35
2018-11-29T10:18:36.549Z,33.15
2018-11-29T10:21:03.984Z,29.72
2018-11-29T10:23:31.400Z,36.68
2018-11-29T10:26:02.385Z,33.53
2018-11-29T10:28:29.834Z,37.88
2018-11-29T10:31:01.525Z,29.57
2018-11-29T10:33:28.917Z,30.75
2018-11-29T10:35:59.244Z,30.65
2018-11-29T10:38:23.736Z,40.85
2018-11-29T10:40:51.157Z,35.85
2018-11-29T10:43:22.107Z,29.63
2018-11-29T10:45:49.529Z,30.20
2018-11-29T10:48:22.009Z,28.92
2018-11-29T10:50:49.425Z,31.30
2018-11-29T10:53:16.862Z,29.67
2018-11-29T10:55:44.277Z,30.02
2018-11-29T10:58:11.657Z,39.73
2018-11-29T11:00:44.809Z,43.08
2018-11-29T11:03:17.806Z,33.33
2018-11-29T11:05:46.277Z,34.55
2018-11-29T11:08:13.697Z,34.33
2018-11-29T11:10:41.104Z,28.17
2018-11-29T11:13:08.549Z,33.55
2018-11-29T11:15:36.102Z,34.63
2018-11-29T11:18:03.804Z,43.02
2018-11-29T11:20:31.221Z,28.77
2018-11-29T11:22:58.626Z,29.35
2018-11-29T11:25:26.049Z,27.27
2018-11-29T11:27:53.476Z,38.80
2018-11-29T11:30:21.377Z,30.40
2018-11-29T11:32:49.876Z,30.62
2018-11-29T11:35:17.332Z,36.15
2018-11-29T11:37:44.797Z,35.58
2018-11-29T11:40:15.157Z,39.23
2018-11-29T11:42:43.385Z,36.55
2018-11-29T11:45:13.752Z,31.25
2018-11-29T11:47:44.835Z,28.75
2018-11-29T11:50:13.510Z,29.07
2018-11-29T11:52:41.039Z,36.50
2018-11-29T11:55:09.205Z,26.35
2018-11-29T11:57:36.671Z,26.33
2018-11-29T12:00:36.821Z,26.93
2018-11-29T12:03:07.403Z,39.50
2018-11-29T12:05:35.213Z,36.48
2018-11-29T12:08:02.653Z,31.93
2018-11-29T12:10:30.074Z,34.88
2018-11-29T12:12:58.501Z,37.42
2018-11-29T12:15:25.941Z,30.25
2018-11-29T12:17:53.662Z,27.58
2018-11-29T12:20:21.081Z,31.65
2018-11-29T12:22:48.529Z,29.63
2018-11-29T12:25:19.878Z,37.78
2018-11-29T12:27:47.293Z,31.90
2018-11-29T12:30:21.088Z,30.97
2018-11-29T12:32:48.505Z,34.90
2018-11-29T12:35:15.897Z,38.88
2018-11-29T12:37:43.320Z,28.00
2018-11-29T12:40:14.753Z,25.40
2018-11-29T12:42:42.189Z,35.88
2018-11-29T12:45:10.750Z,25.17
2018-11-29T12:47:38.313Z,37.38
2018-11-29T12:50:10.257Z,38.85
2018-11-29T12:52:37.669Z,40.60
2018-11-29T12:55:06.416Z,35.20
2018-11-29T12:57:33.806Z,41.60
2018-11-29T13:00:01.237Z,26.80
2018-11-29T13:02:28.641Z,38.42
2018-11-29T13:04:56.086Z,38.88
2018-11-29T13:07:23.514Z,29.98
2018-11-29T13:09:50.925Z,36.58
2018-11-29T13:12:18.357Z,32.23
2018-11-29T13:14:45.773Z,35.48
2018-11-29T13:17:14.348Z,26.95
2018-11-29T13:19:40.661Z,34.80
2018-11-29T13:22:08.070Z,27.55
2018-11-29T13:24:35.477Z,27.60
2018-11-29T13:27:02.917Z,31.62
2018-11-29T13:29:30.337Z,30.40
2018-11-29T13:31:57.741Z,30.50
2018-11-29T13:34:25.182Z,31.10
2018-11-29T13:36:52.612Z,31.40
2018-11-29T13:39:20.113Z,31.02
2018-11-29T13:41:47.526Z,28.05
2018-11-29T13:44:14.949Z,31.17
2018-11-29T13:46:42.344Z,28.55
2018-11-29T13:49:09.752Z,27.55
2018-11-29T13:51:37.162Z,33.20
2018-11-29T13:54:04.965Z,36.20
2018-11-29T13:56:32.379Z,33.98
2018-11-29T13:58:59.813Z,31.40
2018-11-29T14:01:27.217Z,30.37
2018-11-29T14:03:54.625Z,30.80
2018-11-29T14:06:22.062Z,24.52
2018-11-29T14:08:49.473Z,34.95
2018-11-29T14:11:16.870Z,30.12
2018-11-29T14:13:44.309Z,33.18
2018-11-29T14:16:11.705Z,31.50
2018-11-29T14:18:39.101Z,38.13
2018-11-29T14:21:06.526Z,30.97
2018-11-29T14:23:33.925Z,30.88
2018-11-29T14:26:01.343Z,33.13
2018-11-29T14:28:28.752Z,28.73
2018-11-29T14:30:56.150Z,31.40
2018-11-29T14:33:23.582Z,33.58
2018-11-29T14:35:50.977Z,33.45
2018-11-29T14:38:18.379Z,32.38
2018-11-29T14:40:45.839Z,24.85
2018-11-29T14:43:13.214Z,27.65
2018-11-29T14:45:40.655Z,30.27
2018-11-29T14:48:08.065Z,26.02
2018-11-29T14:50:38.698Z,25.40
2018-11-29T14:53:07.149Z,31.55
2018-11-29T14:55:35.017Z,35.80
2018-11-29T14:58:02.460Z,26.00
2018-11-29T15:00:29.881Z,33.00
2018-11-29T15:02:58.305Z,32.98
2018-11-29T15:05:30.400Z,42.13
2018-11-29T15:07:57.837Z,24.57
2018-11-29T15:10:25.645Z,25.80
2018-11-29T15:12:53.199Z,30.08
2018-11-29T15:15:20.653Z,31.17
2018-11-29T15:17:48.981Z,27.65
2018-11-29T15:20:25.721Z,29.82
2018-11-29T15:22:53.151Z,28.70
2018-11-29T15:25:20.609Z,32.53
2018-11-29T15:27:48.021Z,31.75
2018-11-29T15:30:17.841Z,27.90
2018-11-29T15:32:45.261Z,25.75
2018-11-29T15:35:12.669Z,24.30
2018-11-29T15:37:40.095Z,30.57
2018-11-29T15:40:09.840Z,28.70
2018-11-29T15:42:37.240Z,30.72
2018-11-29T15:45:08.544Z,29.72
2018-11-29T15:47:35.949Z,23.12
2018-11-29T15:50:04.101Z,27.32
2018-11-29T15:52:31.489Z,21.15
2018-11-29T15:54:58.921Z,22.05
2018-11-29T15:57:26.313Z,28.15
2018-11-29T15:59:53.712Z,30.37
2018-11-29T16:02:21.118Z,24.63
2018-11-29T16:04:48.509Z,31.05
2018-11-29T16:07:15.919Z,21.85
2018-11-29T16:09:43.321Z,29.90
2018-11-29T16:12:10.729Z,31.27
2018-11-29T16:14:43.484Z,28.45
2018-11-29T16:17:09.149Z,32.28
2018-11-29T16:19:39.956Z,27.07
2018-11-29T16:22:10.461Z,29.72
2018-11-29T16:24:37.897Z,30.45
2018-11-29T16:27:05.561Z,28.77
2018-11-29T16:29:32.989Z,31.57
2018-11-29T16:32:00.381Z,24.75
2018-11-29T16:34:27.800Z,26.30
2018-11-29T16:36:55.220Z,24.57
2018-11-29T16:39:22.629Z,25.17
2018-11-29T16:41:50.057Z,35.17
2018-11-29T16:44:17.489Z,36.60
2018-11-29T16:46:44.895Z,22.85
2018-11-29T16:49:12.305Z,31.97
2018-11-29T16:51:39.712Z,26.07
2018-11-29T16:54:07.125Z,23.62
2018-11-29T16:56:34.534Z,38.40
2018-11-29T16:59:01.945Z,34.83
2018-11-29T17:01:29.348Z,24.23
2018-11-29T17:03:56.736Z,34.08
2018-11-29T17:06:24.159Z,34.95
2018-11-29T17:08:51.577Z,21.05
2018-11-29T17:11:19.025Z,26.00
2018-11-29T17:13:52.449Z,23.38
2018-11-29T17:16:19.869Z,26.77
2018-11-29T17:18:47.290Z,26.60
2018-11-29T17:21:16.762Z,32.98
2018-11-29T17:23:44.157Z,31.75
2018-11-29T17:26:11.569Z,22.15
2018-11-29T17:28:38.981Z,24.50
2018-11-29T17:31:06.413Z,27.50
2018-11-29T17:33:33.810Z,29.57
2018-11-29T17:36:01.209Z,26.27
2018-11-29T17:38:28.626Z,28.95
2018-11-29T17:40:59.188Z,28.35
2018-11-29T17:43:26.617Z,26.68
2018-11-29T17:45:57.156Z,26.90
2018-11-29T17:48:24.564Z,29.37
2018-11-29T17:50:51.975Z,28.92
2018-11-29T17:53:19.373Z,33.38
2018-11-29T17:55:46.837Z,30.72
2018-11-29T17:58:14.934Z,25.50
2018-11-29T18:00:44.365Z,23.52
2018-11-29T18:03:12.998Z,22.98
2018-11-29T18:05:40.686Z,34.18
2018-11-29T18:08:08.513Z,26.65
2018-11-29T18:10:38.186Z,26.40
2018-11-29T18:13:15.433Z,33.13
2018-11-29T18:15:43.163Z,24.45
2018-11-29T18:18:11.122Z,26.48
2018-11-29T18:20:38.883Z,26.02
2018-11-29T18:23:07.520Z,23.62
2018-11-29T18:25:35.242Z,22.07
2018-11-29T18:28:02.996Z,27.52
2018-11-29T18:30:30.748Z,28.20
2018-11-29T18:32:58.479Z,28.00
2018-11-29T18:35:26.214Z,20.32
2018-11-29T18:37:53.891Z,23.92
2018-11-29T18:40:21.794Z,23.85
2018-11-29T18:42:53.970Z,28.05
2018-11-29T18:45:21.756Z,27.25
2018-11-29T18:47:50.243Z,24.45
2018-11-29T18:50:20.681Z,23.00
2018-11-29T18:52:48.214Z,26.42
2018-11-29T18:55:23.238Z,25.62
2018-11-29T18:57:51.461Z,24.52
2018-11-29T19:00:28.447Z,27.15
2018-11-29T19:03:00.080Z,20.00
2018-11-29T19:05:28.001Z,26.87
2018-11-29T19:07:55.813Z,25.68
2018-11-29T19:10:23.681Z,29.82
2018-11-29T19:12:59.833Z,32.40
2018-11-29T19:15:31.452Z,20.52
2018-11-29T19:17:58.908Z,25.60
2018-11-29T19:20:28.535Z,29.10
2018-11-29T19:23:00.595Z,28.70
2018-11-29T19:25:29.493Z,25.00
2018-11-29T19:27:57.826Z,20.62
2018-11-29T19:30:27.617Z,24.30
2018-11-29T19:33:09.113Z,27.77
2018-11-29T19:35:36.905Z,25.77
2018-11-29T19:38:06.613Z,22.35
2018-11-29T19:40:34.536Z,32.88
2018-11-29T19:43:02.168Z,20.25
2018-11-29T19:45:29.717Z,27.00
2018-11-29T19:47:57.398Z,24.10
2018-11-29T19:50:24.842Z,20.52
2018-11-29T19:52:54.929Z,25.82
2018-11-29T19:55:23.854Z,18.73
2018-11-29T19:57:51.321Z,20.10
2018-11-29T20:00:19.497Z,16.93
2018-11-29T20:02:47.574Z,21.17
2018-11-29T20:05:15.024Z,18.25
2018-11-29T20:07:43.610Z,23.30
2018-11-29T20:10:15.586Z,17.77
2018-11-29T20:12:45.199Z,24.52
2018-11-29T20:15:15.980Z,22.58
2018-11-29T20:17:44.404Z,19.42
2018-11-29T20:20:13.067Z,24.67
2018-11-29T20:22:42.740Z,23.30
2018-11-29T20:25:13.380Z,20.27
2018-11-29T20:27:43.042Z,20.32
2018-11-29T20:30:19.154Z,23.65
2018-11-29T20:32:50.052Z,18.65
2018-11-29T20:35:23.116Z,22.37
2018-11-29T20:37:53.679Z,19.25
2018-11-29T20:40:26.532Z,16.02
2018-11-29T20:43:00.481Z,23.67
2018-11-29T20:45:32.644Z,24.18
2018-11-29T20:48:03.411Z,24.98
2018-11-29T20:50:33.248Z,16.55
2018-11-29T20:53:02.993Z,19.07
2018-11-29T20:55:33.319Z,19.62
2018-11-29T20:58:02.741Z,17.05
2018-11-29T21:00:30.985Z,28.25
2018-11-29T21:02:59.092Z,24.37
2018-11-29T21:05:31.121Z,18.67
2018-11-29T21:08:00.845Z,19.00
2018-11-29T21:10:28.446Z,15.43
2018-11-29T21:13:01.500Z,24.65
2018-11-29T21:15:30.189Z,17.35
2018-11-29T21:17:57.957Z,23.90
2018-11-29T21:20:25.428Z,18.85
2018-11-29T21:22:53.106Z,24.00
2018-11-29T21:25:21.905Z,21.68
2018-11-29T21:27:49.357Z,19.23
2018-11-29T21:30:16.849Z,17.95
2018-11-29T21:32:44.714Z,24.00
2018-11-29T21:35:13.389Z,24.98
2018-11-29T21:37:40.950Z,28.00
2018-11-29T21:40:11.419Z,15.38
2018-11-29T21:42:39.283Z,17.32
2018-11-29T21:45:06.485Z,20.32
2018-11-29T21:47:33.937Z,25.55
2018-11-29T21:50:01.401Z,19.00
2018-11-29T21:52:28.828Z,17.48
2018-11-29T21:54:56.343Z,18.98
2018-11-29T21:57:24.104Z,18.70
2018-11-29T21:59:51.835Z,19.57
2018-11-29T22:02:19.586Z,19.45
2018-11-29T22:04:47.334Z,19.37
2018-11-29T22:07:15.074Z,13.80
2018-11-29T22:09:42.794Z,21.42
2018-11-29T22:12:10.526Z,19.50
2018-11-29T22:14:38.226Z,18.12
2018-11-29T22:17:09.611Z,20.45
2018-11-29T22:19:37.416Z,16.52
2018-11-29T22:22:05.847Z,21.25
2018-11-29T22:24:33.539Z,17.73
2018-11-29T22:27:01.274Z,19.50
2018-11-29T22:29:29.013Z,17.98
2018-11-29T22:31:56.663Z,18.10
2018-11-29T22:34:24.426Z,11.90
2018-11-29T22:36:52.158Z,18.95
2018-11-29T22:39:19.850Z,14.78
2018-11-29T22:41:47.636Z,16.52
2018-11-29T22:44:15.374Z,24.57
2018-11-29T22:46:43.114Z,23.20
2018-11-29T22:49:10.902Z,15.88
2018-11-29T22:51:38.642Z,19.85
2018-11-29T22:54:06.377Z,18.80
2018-11-29T22:56:34.174Z,14.13
2018-11-29T22:59:01.827Z,23.02
2018-11-29T23:01:29.606Z,18.32
2018-11-29T23:03:57.350Z,18.92
2018-11-29T23:06:25.094Z,16.80
2018-11-29T23:08:52.798Z,19.25
2018-11-29T23:11:20.558Z,20.68
2018-11-29T23:13:48.254Z,13.98
2018-11-29T23:16:15.910Z,14.05
2018-11-29T23:18:43.655Z,19.32
2018-11-29T23:21:11.370Z,19.48
2018-11-29T23:23:39.139Z,15.32
2018-11-29T23:26:06.922Z,15.60
2018-11-29T23:28:34.598Z,24.32
2018-11-29T23:31:02.298Z,18.77
2018-11-29T23:33:30.077Z,22.73
2018-11-29T23:35:57.797Z,20.15
2018-11-29T23:38:25.502Z,20.55
2018-11-29T23:40:53.286Z,16.10
2018-11-29T23:43:21.058Z,20.23
2018-11-29T23:45:48.788Z,20.00
2018-11-29T23:48:16.499Z,17.15
2018-11-29T23:50:44.404Z,17.67
2018-11-29T23:53:12.933Z,17.30
2018-11-29T23:55:41.442Z,15.55
2018-11-29T23:58:12.137Z,28.50
